createdAt,value
2023-05-21T00:00:05.860Z,76.46
2023-05-21T00:01:05.757Z,76.56
2023-05-21T00:02:05.746Z,76.56
2023-05-21T00:03:05.825Z,76.56
2023-05-21T00:04:05.726Z,76.56
2023-05-21T00:05:05.711Z,76.46
2023-05-21T00:06:05.747Z,76.46
2023-05-21T00:07:05.689Z,76.46
2023-05-21T00:08:05.670Z,76.46
2023-05-21T00:09:05.683Z,76.46
2023-05-21T00:10:05.651Z,76.46
2023-05-21T00:11:05.666Z,76.46
2023-05-21T00:12:05.660Z,76.50
2023-05-21T00:13:05.621Z,76.50
2023-05-21T00:14:05.602Z,76.50
2023-05-21T00:15:05.596Z,76.70
2023-05-21T00:16:05.646Z,76.50
2023-05-21T00:17:05.619Z,76.50
2023-05-21T00:18:05.671Z,76.50
2023-05-21T00:19:05.630Z,76.50
2023-05-21T00:20:12.528Z,76.63
2023-05-21T00:21:05.560Z,76.43
2023-05-21T00:22:05.538Z,76.53
2023-05-21T00:23:12.629Z,76.73
2023-05-21T00:24:05.491Z,76.43
2023-05-21T00:25:05.478Z,76.63
2023-05-21T00:26:05.483Z,76.32
2023-05-21T00:27:05.523Z,76.53
2023-05-21T00:28:05.479Z,76.36
2023-05-21T00:29:05.517Z,76.23
2023-05-21T00:30:05.553Z,76.32
2023-05-21T00:31:05.437Z,76.32
2023-05-21T00:32:05.459Z,76.12
2023-05-21T00:33:05.421Z,76.43
2023-05-21T00:34:05.387Z,76.43
2023-05-21T00:35:05.430Z,76.43
2023-05-21T00:36:05.349Z,76.23
2023-05-21T00:37:05.365Z,76.43
2023-05-21T00:38:05.329Z,76.53
2023-05-21T00:39:05.340Z,76.32
2023-05-21T00:40:05.319Z,76.53
2023-05-21T00:41:05.309Z,76.53
2023-05-21T00:42:05.311Z,76.53
2023-05-21T00:43:05.322Z,76.56
2023-05-21T00:44:05.290Z,76.53
2023-05-21T00:45:05.251Z,76.16
2023-05-21T00:46:05.308Z,76.36
2023-05-21T00:47:05.262Z,76.36
2023-05-21T00:48:05.283Z,76.56
2023-05-21T00:49:05.208Z,76.56
2023-05-21T00:50:05.264Z,76.56
2023-05-21T00:51:05.185Z,76.36
2023-05-21T00:52:05.184Z,76.46
2023-05-21T00:53:05.202Z,76.56
2023-05-21T00:54:05.146Z,76.26
2023-05-21T00:55:05.150Z,76.26
2023-05-21T00:56:05.120Z,76.36
2023-05-21T00:57:05.142Z,76.26
2023-05-21T00:58:05.094Z,76.56
2023-05-21T00:59:05.145Z,76.56
2023-05-21T01:00:05.155Z,76.67
2023-05-21T01:01:05.090Z,76.56
2023-05-21T01:02:05.116Z,76.46
2023-05-21T01:03:05.247Z,76.67
2023-05-21T01:04:05.038Z,76.97
2023-05-21T01:05:05.054Z,76.80
2023-05-21T01:06:05.048Z,76.90
2023-05-21T01:07:05.007Z,77.11
2023-05-21T01:08:05.001Z,77.11
2023-05-21T01:09:05.388Z,76.90
2023-05-21T01:10:05.000Z,77.11
2023-05-21T01:11:05.039Z,77.11
2023-05-21T01:12:04.953Z,77.21
2023-05-21T01:13:04.931Z,77.11
2023-05-21T01:14:04.987Z,77.11
2023-05-21T01:15:04.932Z,76.90
2023-05-21T01:16:04.902Z,76.90
2023-05-21T01:17:04.985Z,77.21
2023-05-21T01:18:04.919Z,76.90
2023-05-21T01:19:04.953Z,77.11
2023-05-21T01:20:05.879Z,77.11
2023-05-21T01:21:04.868Z,77.11
2023-05-21T01:22:04.829Z,76.70
2023-05-21T01:23:04.852Z,76.70
2023-05-21T01:24:04.805Z,76.70
2023-05-21T01:25:04.791Z,76.74
2023-05-21T01:26:04.835Z,76.70
2023-05-21T01:27:04.771Z,76.70
2023-05-21T01:28:04.753Z,76.90
2023-05-21T01:29:04.808Z,76.84
2023-05-21T01:30:04.740Z,76.80
2023-05-21T01:31:04.747Z,76.84
2023-05-21T01:32:04.726Z,76.74
2023-05-21T01:33:04.760Z,76.74
2023-05-21T01:34:04.744Z,76.74
2023-05-21T01:35:04.729Z,76.74
2023-05-21T01:36:04.672Z,77.14
2023-05-21T01:37:04.666Z,77.14
2023-05-21T01:38:04.644Z,77.25
2023-05-21T01:39:04.639Z,77.25
2023-05-21T01:40:04.627Z,76.94
2023-05-21T01:41:04.636Z,76.74
2023-05-21T01:42:04.608Z,76.84
2023-05-21T01:43:04.586Z,76.94
2023-05-21T01:44:04.589Z,77.25
2023-05-21T01:45:04.567Z,77.18
2023-05-21T01:46:04.579Z,77.04
2023-05-21T01:47:04.595Z,76.98
2023-05-21T01:48:04.559Z,77.28
2023-05-21T01:49:04.521Z,77.28
2023-05-21T01:50:04.568Z,77.25
2023-05-21T01:51:04.503Z,77.48
2023-05-21T01:52:04.486Z,77.18
2023-05-21T01:53:04.522Z,77.48
2023-05-21T01:54:04.469Z,77.34
2023-05-21T01:55:04.453Z,77.59
2023-05-21T01:56:04.445Z,77.69
2023-05-21T01:57:04.442Z,77.38
2023-05-21T01:58:04.430Z,77.48
2023-05-21T01:59:04.464Z,77.08
2023-05-21T02:00:04.407Z,77.59
2023-05-21T02:01:04.386Z,77.48
2023-05-21T02:02:04.389Z,77.18
2023-05-21T02:03:04.449Z,77.18
2023-05-21T02:04:04.456Z,77.28
2023-05-21T02:05:04.370Z,77.52
2023-05-21T02:06:04.344Z,77.38
2023-05-21T02:07:04.321Z,77.59
2023-05-21T02:08:04.321Z,77.52
2023-05-21T02:09:04.298Z,77.62
2023-05-21T02:10:04.279Z,77.69
2023-05-21T02:11:04.326Z,77.59
2023-05-21T02:12:04.254Z,77.28
2023-05-21T02:13:04.247Z,77.38
2023-05-21T02:14:04.256Z,77.52
2023-05-21T02:15:04.265Z,77.59
2023-05-21T02:16:04.302Z,77.42
2023-05-21T02:17:04.246Z,77.38
2023-05-21T02:18:04.228Z,77.42
2023-05-21T02:19:04.227Z,77.52
2023-05-21T02:20:04.166Z,77.72
2023-05-21T02:21:04.159Z,77.93
2023-05-21T02:22:04.150Z,77.93
2023-05-21T02:23:04.162Z,77.83
2023-05-21T02:24:04.131Z,78.03
2023-05-21T02:25:04.124Z,78.23
2023-05-21T02:26:04.118Z,77.93
2023-05-21T02:27:04.157Z,77.52
2023-05-21T02:28:04.091Z,77.83
2023-05-21T02:29:04.096Z,77.93
2023-05-21T02:30:04.122Z,77.83
2023-05-21T02:31:04.045Z,77.83
2023-05-21T02:32:04.146Z,77.93
2023-05-21T02:33:04.052Z,77.72
2023-05-21T02:34:04.091Z,77.93
2023-05-21T02:35:04.064Z,77.83
2023-05-21T02:36:03.987Z,77.72
2023-05-21T02:37:03.977Z,77.93
2023-05-21T02:38:03.970Z,77.93
2023-05-21T02:39:03.948Z,77.97
2023-05-21T02:40:03.953Z,77.83
2023-05-21T02:41:03.957Z,78.13
2023-05-21T02:42:03.921Z,78.03
2023-05-21T02:43:03.915Z,77.93
2023-05-21T02:44:03.891Z,78.13
2023-05-21T02:45:03.912Z,78.03
2023-05-21T02:46:03.900Z,77.83
2023-05-21T02:47:03.903Z,77.83
2023-05-21T02:48:03.931Z,77.72
2023-05-21T02:49:03.839Z,77.76
2023-05-21T02:50:03.828Z,77.72
2023-05-21T02:51:03.852Z,77.97
2023-05-21T02:52:03.820Z,77.52
2023-05-21T02:53:03.827Z,77.52
2023-05-21T02:54:03.783Z,77.52
2023-05-21T02:55:03.766Z,77.52
2023-05-21T02:56:03.761Z,77.52
2023-05-21T02:57:03.754Z,77.83
2023-05-21T02:58:03.730Z,77.52
2023-05-21T02:59:03.757Z,77.72
2023-05-21T03:00:03.759Z,77.72
2023-05-21T03:01:03.744Z,77.62
2023-05-21T03:02:03.712Z,77.62
2023-05-21T03:03:03.765Z,77.52
2023-05-21T03:04:03.708Z,77.72
2023-05-21T03:05:03.689Z,77.86
2023-05-21T03:06:03.642Z,77.66
2023-05-21T03:07:03.669Z,77.72
2023-05-21T03:08:03.669Z,77.76
2023-05-21T03:09:03.615Z,77.72
2023-05-21T03:10:03.613Z,77.52
2023-05-21T03:11:03.621Z,77.52
2023-05-21T03:12:03.590Z,78.03
2023-05-21T03:13:03.582Z,77.93
2023-05-21T03:14:03.572Z,78.03
2023-05-21T03:15:03.561Z,77.72
2023-05-21T03:16:03.556Z,77.62
2023-05-21T03:17:03.648Z,77.72
2023-05-21T03:18:03.584Z,77.62
2023-05-21T03:19:03.546Z,77.72
2023-05-21T03:20:03.504Z,77.97
2023-05-21T03:21:03.487Z,78.13
2023-05-21T03:22:03.467Z,78.03
2023-05-21T03:23:03.509Z,77.83
2023-05-21T03:24:03.436Z,77.93
2023-05-21T03:25:03.435Z,78.13
2023-05-21T03:26:03.432Z,77.93
2023-05-21T03:27:03.439Z,77.62
2023-05-21T03:28:03.402Z,77.62
2023-05-21T03:29:03.425Z,77.72
2023-05-21T03:30:04.340Z,77.93
2023-05-21T03:31:03.386Z,77.93
2023-05-21T03:32:03.381Z,77.83
2023-05-21T03:33:03.413Z,78.03
2023-05-21T03:34:03.405Z,78.13
2023-05-21T03:35:03.330Z,78.03
2023-05-21T03:36:03.307Z,77.83
2023-05-21T03:37:03.292Z,77.83
2023-05-21T03:38:03.290Z,77.62
2023-05-21T03:39:03.301Z,77.42
2023-05-21T03:40:03.256Z,77.42
2023-05-21T03:41:03.272Z,77.62
2023-05-21T03:42:03.237Z,77.52
2023-05-21T03:43:03.236Z,77.48
2023-05-21T03:44:03.223Z,77.59
2023-05-21T03:45:03.209Z,77.69
2023-05-21T03:46:03.241Z,77.38
2023-05-21T03:47:03.232Z,77.14
2023-05-21T03:48:03.219Z,77.45
2023-05-21T03:49:03.155Z,77.45
2023-05-21T03:50:03.166Z,77.45
2023-05-21T03:51:03.156Z,77.34
2023-05-21T03:52:03.126Z,77.59
2023-05-21T03:53:03.139Z,77.55
2023-05-21T03:54:03.121Z,77.34
2023-05-21T03:55:03.118Z,77.55
2023-05-21T03:56:03.103Z,77.14
2023-05-21T03:57:03.067Z,77.34
2023-05-21T03:58:03.054Z,77.25
2023-05-21T03:59:03.085Z,77.14
2023-05-21T04:00:03.058Z,77.11
2023-05-21T04:01:03.054Z,77.14
2023-05-21T04:02:03.054Z,76.80
2023-05-21T04:03:03.076Z,76.70
2023-05-21T04:04:03.211Z,77.11
2023-05-21T04:05:03.024Z,77.01
2023-05-21T04:06:02.973Z,77.21
2023-05-21T04:07:02.955Z,77.11
2023-05-21T04:08:02.944Z,77.01
2023-05-21T04:09:02.969Z,76.67
2023-05-21T04:10:02.914Z,76.67
2023-05-21T04:11:03.031Z,76.67
2023-05-21T04:12:02.895Z,76.77
2023-05-21T04:13:02.891Z,76.87
2023-05-21T04:14:02.914Z,76.67
2023-05-21T04:15:02.875Z,76.77
2023-05-21T04:16:02.953Z,76.67
2023-05-21T04:17:03.029Z,76.77
2023-05-21T04:18:02.913Z,76.73
2023-05-21T04:19:02.892Z,76.63
2023-05-21T04:20:02.812Z,76.32
2023-05-21T04:21:02.795Z,76.63
2023-05-21T04:22:02.788Z,76.53
2023-05-21T04:23:02.856Z,76.19
2023-05-21T04:24:02.765Z,76.29
2023-05-21T04:25:02.772Z,76.39
2023-05-21T04:26:02.750Z,76.39
2023-05-21T04:27:02.772Z,76.39
2023-05-21T04:28:02.783Z,76.29
2023-05-21T04:29:02.738Z,76.29
2023-05-21T04:30:02.702Z,76.26
2023-05-21T04:31:02.857Z,76.26
2023-05-21T04:32:02.674Z,76.26
2023-05-21T04:33:02.728Z,76.35
2023-05-21T04:34:02.696Z,76.42
2023-05-21T04:35:02.666Z,76.32
2023-05-21T04:36:02.626Z,76.59
2023-05-21T04:37:02.624Z,76.35
2023-05-21T04:38:04.097Z,76.51
2023-05-21T04:39:02.599Z,75.98
2023-05-21T04:40:02.581Z,75.67
2023-05-21T04:41:02.587Z,75.77
2023-05-21T04:42:02.554Z,75.54
2023-05-21T04:43:02.567Z,75.54
2023-05-21T04:44:02.534Z,75.10
2023-05-21T04:45:02.541Z,75.40
2023-05-21T04:46:02.505Z,75.40
2023-05-21T04:47:02.678Z,75.50
2023-05-21T04:48:02.495Z,75.50
2023-05-21T04:49:02.501Z,74.96
2023-05-21T04:50:02.467Z,74.96
2023-05-21T04:51:02.479Z,75.50
2023-05-21T04:52:02.455Z,75.26
2023-05-21T04:53:02.465Z,75.36
2023-05-21T04:54:02.419Z,75.40
2023-05-21T04:55:02.448Z,75.16
2023-05-21T04:56:02.390Z,75.46
2023-05-21T04:57:02.391Z,75.56
2023-05-21T04:58:02.394Z,75.36
2023-05-21T04:59:05.232Z,75.50
2023-05-21T05:00:02.362Z,75.46
2023-05-21T05:01:09.416Z,75.67
2023-05-21T05:02:02.322Z,75.70
2023-05-21T05:03:02.386Z,75.60
2023-05-21T05:04:09.338Z,75.70
2023-05-21T05:05:02.295Z,75.70
2023-05-21T05:06:02.282Z,75.40
2023-05-21T05:07:02.314Z,75.50
2023-05-21T05:08:02.258Z,75.40
2023-05-21T05:09:02.264Z,76.07
2023-05-21T05:10:02.315Z,75.76
2023-05-21T05:11:02.233Z,75.90
2023-05-21T05:12:02.208Z,76.17
2023-05-21T05:13:02.218Z,76.07
2023-05-21T05:14:02.190Z,75.67
2023-05-21T05:15:02.211Z,75.56
2023-05-21T05:16:02.271Z,75.23
2023-05-21T05:17:02.167Z,75.53
2023-05-21T05:18:02.236Z,75.33
2023-05-21T05:19:02.187Z,75.43
2023-05-21T05:20:02.130Z,76.03
2023-05-21T05:21:02.128Z,75.53
2023-05-21T05:22:02.118Z,75.49
2023-05-21T05:23:02.091Z,75.49
2023-05-21T05:24:02.076Z,75.19
2023-05-21T05:25:02.065Z,75.29
2023-05-21T05:26:02.073Z,75.39
2023-05-21T05:27:02.062Z,75.56
2023-05-21T05:28:02.064Z,75.46
2023-05-21T05:29:02.024Z,75.56
2023-05-21T05:30:02.014Z,75.32
2023-05-21T05:31:02.187Z,75.35
2023-05-21T05:32:01.986Z,75.52
2023-05-21T05:33:02.002Z,75.32
2023-05-21T05:34:02.013Z,75.32
2023-05-21T05:35:02.682Z,75.09
2023-05-21T05:36:01.967Z,75.32
2023-05-21T05:37:01.945Z,75.32
2023-05-21T05:38:02.044Z,75.09
2023-05-21T05:39:01.906Z,75.18
2023-05-21T05:40:01.943Z,75.29
2023-05-21T05:41:01.890Z,75.18
2023-05-21T05:42:01.881Z,75.38
2023-05-21T05:43:01.881Z,75.09
2023-05-21T05:44:01.852Z,74.95
2023-05-21T05:45:01.842Z,74.95
2023-05-21T05:46:01.892Z,75.25
2023-05-21T05:47:01.849Z,74.95
2023-05-21T05:48:01.879Z,75.11
2023-05-21T05:49:01.806Z,75.11
2023-05-21T05:50:01.793Z,75.11
2023-05-21T05:51:01.784Z,75.21
2023-05-21T05:52:01.795Z,74.91
2023-05-21T05:53:01.749Z,75.08
2023-05-21T05:54:01.735Z,74.77
2023-05-21T05:55:01.725Z,74.68
2023-05-21T05:56:01.721Z,74.77
2023-05-21T05:57:01.811Z,74.77
2023-05-21T05:58:01.754Z,74.34
2023-05-21T05:59:01.687Z,74.34
2023-05-21T06:00:01.850Z,74.44
2023-05-21T06:01:01.659Z,74.44
2023-05-21T06:02:01.645Z,74.20
2023-05-21T06:03:01.858Z,74.51
2023-05-21T06:04:01.697Z,74.80
2023-05-21T06:05:01.612Z,74.71
2023-05-21T06:06:01.624Z,74.71
2023-05-21T06:07:01.582Z,74.80
2023-05-21T06:08:01.597Z,74.67
2023-05-21T06:09:01.562Z,74.67
2023-05-21T06:10:01.581Z,74.77
2023-05-21T06:11:02.282Z,74.47
2023-05-21T06:12:01.552Z,74.33
2023-05-21T06:13:01.533Z,74.23
2023-05-21T06:14:01.542Z,74.23
2023-05-21T06:15:01.498Z,74.43
2023-05-21T06:16:01.582Z,74.50
2023-05-21T06:17:01.493Z,74.50
2023-05-21T06:18:01.508Z,74.40
2023-05-21T06:19:01.513Z,74.37
2023-05-21T06:20:01.447Z,74.46
2023-05-21T06:21:01.454Z,74.66
2023-05-21T06:22:01.471Z,74.37
2023-05-21T06:23:01.424Z,73.86
2023-05-21T06:24:01.394Z,73.96
2023-05-21T06:25:01.391Z,74.13
2023-05-21T06:26:01.368Z,74.06
2023-05-21T06:27:01.380Z,74.13
2023-05-21T06:28:01.377Z,74.03
2023-05-21T06:29:01.342Z,74.03
2023-05-21T06:30:01.333Z,73.93
2023-05-21T06:31:01.328Z,74.03
2023-05-21T06:32:01.304Z,74.03
2023-05-21T06:33:01.366Z,74.13
2023-05-21T06:34:01.524Z,73.59
2023-05-21T06:35:01.297Z,73.79
2023-05-21T06:36:01.260Z,73.59
2023-05-21T06:37:01.250Z,73.79
2023-05-21T06:38:01.265Z,73.86
2023-05-21T06:39:01.288Z,73.79
2023-05-21T06:40:01.280Z,73.86
2023-05-21T06:41:01.208Z,73.86
2023-05-21T06:42:01.198Z,73.75
2023-05-21T06:43:01.186Z,73.46
2023-05-21T06:44:01.186Z,73.72
2023-05-21T06:45:01.152Z,73.72
2023-05-21T06:46:01.223Z,73.72
2023-05-21T06:47:01.130Z,73.32
2023-05-21T06:48:01.201Z,73.58
2023-05-21T06:49:01.109Z,73.69
2023-05-21T06:50:01.096Z,73.69
2023-05-21T06:51:01.133Z,73.39
2023-05-21T06:52:01.091Z,73.49
2023-05-21T06:53:01.077Z,73.25
2023-05-21T06:54:01.061Z,73.25
2023-05-21T06:55:01.044Z,73.25
2023-05-21T06:56:01.067Z,73.65
2023-05-21T06:57:01.018Z,73.25
2023-05-21T06:58:01.099Z,73.35
2023-05-21T06:59:01.000Z,73.42
2023-05-21T07:00:01.004Z,73.72
2023-05-21T07:01:00.994Z,73.61
2023-05-21T07:02:03.054Z,73.32
2023-05-21T07:03:01.071Z,73.72
2023-05-21T07:04:01.040Z,73.72
2023-05-21T07:05:00.935Z,73.61
2023-05-21T07:06:00.918Z,73.68
2023-05-21T07:07:00.948Z,73.58
2023-05-21T07:08:00.897Z,73.68
2023-05-21T07:09:00.896Z,73.65
2023-05-21T07:10:00.930Z,73.44
2023-05-21T07:11:00.862Z,73.85
2023-05-21T07:12:00.852Z,73.55
2023-05-21T07:13:00.948Z,73.44
2023-05-21T07:14:00.929Z,73.65
2023-05-21T07:15:00.809Z,73.41
2023-05-21T07:16:00.870Z,73.41
2023-05-21T07:17:00.867Z,73.21
2023-05-21T07:18:00.823Z,73.21
2023-05-21T07:19:00.822Z,73.47
2023-05-21T07:20:00.760Z,73.47
2023-05-21T07:21:00.768Z,73.18
2023-05-21T07:22:00.777Z,72.98
2023-05-21T07:23:00.754Z,72.85
2023-05-21T07:24:00.709Z,73.14
2023-05-21T07:25:00.711Z,72.94
2023-05-21T07:26:00.793Z,73.04
2023-05-21T07:27:01.920Z,72.91
2023-05-21T07:28:00.737Z,73.11
2023-05-21T07:29:00.658Z,73.00
2023-05-21T07:30:00.670Z,73.21
2023-05-21T07:31:00.697Z,73.21
2023-05-21T07:32:00.622Z,73.21
2023-05-21T07:33:00.687Z,73.11
2023-05-21T07:34:00.685Z,73.00
2023-05-21T07:35:00.590Z,73.17
2023-05-21T07:36:00.592Z,73.07
2023-05-21T07:37:00.614Z,72.77
2023-05-21T07:38:00.685Z,72.77
2023-05-21T07:39:00.623Z,72.67
2023-05-21T07:40:00.656Z,72.24
2023-05-21T07:41:00.627Z,72.84
2023-05-21T07:42:00.555Z,72.50
2023-05-21T07:43:00.552Z,72.34
2023-05-21T07:44:00.503Z,72.60
2023-05-21T07:45:00.498Z,72.50
2023-05-21T07:46:00.541Z,72.41
2023-05-21T07:47:00.459Z,72.60
2023-05-21T07:48:00.510Z,72.60
2023-05-21T07:49:00.437Z,72.67
2023-05-21T07:50:00.440Z,72.41
2023-05-21T07:51:00.431Z,72.47
2023-05-21T07:52:00.437Z,72.86
2023-05-21T07:53:00.564Z,72.37
2023-05-21T07:54:00.391Z,72.73
2023-05-21T07:55:00.392Z,72.37
2023-05-21T07:56:00.355Z,72.53
2023-05-21T07:57:00.356Z,72.44
2023-05-21T07:58:00.412Z,72.53
2023-05-21T07:59:00.324Z,72.24
2023-05-21T08:00:00.314Z,72.30
2023-05-21T08:01:00.300Z,72.40
2023-05-21T08:02:00.316Z,72.20
2023-05-21T08:03:00.376Z,72.40
2023-05-21T08:04:00.435Z,72.10
2023-05-21T08:05:00.284Z,71.70
2023-05-21T08:06:00.249Z,71.97
2023-05-21T08:07:00.236Z,72.10
2023-05-21T08:08:00.229Z,72.17
2023-05-21T08:09:00.219Z,72.17
2023-05-21T08:10:02.266Z,71.77
2023-05-21T08:11:00.222Z,72.17
2023-05-21T08:12:00.180Z,72.07
2023-05-21T08:13:00.174Z,71.94
2023-05-21T08:14:00.183Z,72.36
2023-05-21T08:15:00.153Z,72.33
2023-05-21T08:16:00.203Z,71.54
2023-05-21T08:17:00.122Z,71.54
2023-05-21T08:18:00.198Z,72.03
2023-05-21T08:19:00.166Z,71.94
2023-05-21T08:20:00.160Z,71.70
2023-05-21T08:21:00.147Z,71.54
2023-05-21T08:22:00.167Z,71.50
2023-05-21T08:23:00.067Z,71.80
2023-05-21T08:24:00.066Z,71.80
2023-05-21T08:25:00.041Z,71.80
2023-05-21T08:26:00.036Z,71.80
2023-05-21T08:27:00.056Z,71.70
2023-05-21T08:28:00.150Z,71.57
2023-05-21T08:29:00.000Z,71.60
2023-05-21T08:29:59.976Z,71.70
2023-05-21T08:31:00.006Z,71.31
2023-05-21T08:32:00.055Z,71.57
2023-05-21T08:32:59.966Z,71.50
2023-05-21T08:33:59.981Z,71.60
2023-05-21T08:34:59.928Z,71.57
2023-05-21T08:35:59.914Z,71.60
2023-05-21T08:36:59.905Z,71.70
2023-05-21T08:37:59.921Z,71.60
2023-05-21T08:38:59.880Z,71.86
2023-05-21T08:39:59.932Z,71.47
2023-05-21T08:40:59.888Z,71.57
2023-05-21T08:41:59.878Z,71.37
2023-05-21T08:42:59.866Z,71.27
2023-05-21T08:43:59.824Z,71.37
2023-05-21T08:44:59.837Z,71.08
2023-05-21T08:45:59.844Z,71.17
2023-05-21T08:46:59.812Z,71.23
2023-05-21T08:47:59.889Z,71.14
2023-05-21T08:48:59.773Z,70.94
2023-05-21T08:49:59.821Z,71.04
2023-05-21T08:50:59.753Z,71.20
2023-05-21T08:51:59.783Z,71.30
2023-05-21T08:52:59.719Z,71.00
2023-05-21T08:53:59.719Z,71.20
2023-05-21T08:54:59.705Z,71.11
2023-05-21T08:55:59.685Z,70.90
2023-05-21T08:56:59.810Z,70.97
2023-05-21T08:57:59.699Z,70.87
2023-05-21T08:58:59.686Z,70.67
2023-05-21T08:59:59.644Z,70.87
2023-05-21T09:00:59.671Z,71.03
2023-05-21T09:01:59.716Z,70.54
2023-05-21T09:02:59.707Z,70.25
2023-05-21T09:04:12.272Z,69.92
2023-05-21T09:05:00.605Z,69.78
2023-05-21T09:05:59.591Z,69.49
2023-05-21T09:06:59.564Z,70.67
2023-05-21T09:07:59.597Z,69.59
2023-05-21T09:08:59.557Z,69.85
2023-05-21T09:09:59.543Z,69.68
2023-05-21T09:10:59.523Z,70.08
2023-05-21T09:11:59.517Z,69.68
2023-05-21T09:12:59.499Z,70.18
2023-05-21T09:13:59.488Z,70.18
2023-05-21T09:14:59.563Z,69.78
2023-05-21T09:15:59.507Z,69.95
2023-05-21T09:16:59.684Z,69.88
2023-05-21T09:17:59.469Z,69.59
2023-05-21T09:19:00.633Z,69.88
2023-05-21T09:19:59.424Z,70.14
2023-05-21T09:20:59.424Z,69.74
2023-05-21T09:21:59.412Z,69.85
2023-05-21T09:22:59.386Z,69.74
2023-05-21T09:23:59.422Z,69.65
2023-05-21T09:24:59.384Z,69.45
2023-05-21T09:25:59.355Z,70.50
2023-05-21T09:26:59.367Z,69.55
2023-05-21T09:27:59.469Z,69.65
2023-05-21T09:28:59.324Z,69.45
2023-05-21T09:29:59.364Z,69.45
2023-05-21T09:30:59.425Z,69.55
2023-05-21T09:31:59.293Z,69.45
2023-05-21T09:32:59.350Z,70.24
2023-05-21T09:33:59.292Z,69.45
2023-05-21T09:34:59.259Z,69.55
2023-05-21T09:35:59.242Z,70.44
2023-05-21T09:36:59.246Z,70.34
2023-05-21T09:37:59.241Z,69.55
2023-05-21T09:38:59.217Z,70.44
2023-05-21T09:39:59.239Z,69.55
2023-05-21T09:40:59.201Z,69.45
2023-05-21T09:41:59.177Z,69.26
2023-05-21T09:42:59.164Z,69.74
2023-05-21T09:43:59.156Z,69.35
2023-05-21T09:44:59.175Z,69.55
2023-05-21T09:46:01.796Z,70.64
2023-05-21T09:46:59.221Z,70.73
2023-05-21T09:47:59.164Z,69.52
2023-05-21T09:48:59.152Z,69.65
2023-05-21T09:49:59.166Z,69.85
2023-05-21T09:50:59.070Z,69.52
2023-05-21T09:51:59.113Z,69.45
2023-05-21T09:52:59.062Z,69.55
2023-05-21T09:53:59.130Z,69.65
2023-05-21T09:54:59.027Z,69.65
2023-05-21T09:55:59.035Z,69.52
2023-05-21T09:56:59.029Z,69.45
2023-05-21T09:57:59.052Z,69.42
2023-05-21T09:58:58.988Z,69.52
2023-05-21T09:59:58.978Z,69.42
2023-05-21T10:00:58.974Z,69.52
2023-05-21T10:01:59.114Z,69.22
2023-05-21T10:02:59.055Z,69.32
2023-05-21T10:03:59.051Z,69.42
2023-05-21T10:04:58.929Z,69.42
2023-05-21T10:05:58.915Z,69.02
2023-05-21T10:06:59.017Z,69.02
2023-05-21T10:07:58.892Z,69.02
2023-05-21T10:08:58.889Z,69.22
2023-05-21T10:09:58.923Z,68.93
2023-05-21T10:10:58.856Z,69.02
2023-05-21T10:11:58.847Z,69.12
2023-05-21T10:12:58.834Z,69.22
2023-05-21T10:13:58.826Z,69.12
2023-05-21T10:14:58.808Z,69.12
2023-05-21T10:15:58.849Z,69.32
2023-05-21T10:16:58.790Z,68.83
2023-05-21T10:17:58.869Z,68.89
2023-05-21T10:18:58.824Z,68.89
2023-05-21T10:19:58.762Z,68.99
2023-05-21T10:20:58.764Z,68.99
2023-05-21T10:21:58.769Z,68.70
2023-05-21T10:22:58.764Z,68.89
2023-05-21T10:23:58.722Z,68.89
2023-05-21T10:24:58.704Z,68.70
2023-05-21T10:25:58.694Z,68.99
2023-05-21T10:26:58.686Z,68.99
2023-05-21T10:27:58.713Z,68.79
2023-05-21T10:28:58.671Z,68.89
2023-05-21T10:29:58.648Z,68.89
2023-05-21T10:30:58.631Z,68.79
2023-05-21T10:31:58.733Z,68.73
2023-05-21T10:32:58.788Z,68.79
2023-05-21T10:33:58.648Z,68.70
2023-05-21T10:35:00.718Z,68.79
2023-05-21T10:35:58.601Z,68.79
2023-05-21T10:36:58.582Z,68.40
2023-05-21T10:37:58.565Z,68.30
2023-05-21T10:38:58.555Z,68.33
2023-05-21T10:39:58.588Z,68.30
2023-05-21T10:40:58.574Z,68.60
2023-05-21T10:41:59.264Z,68.10
2023-05-21T10:42:58.515Z,68.20
2023-05-21T10:43:58.503Z,68.01
2023-05-21T10:44:58.505Z,68.20
2023-05-21T10:45:58.675Z,68.20
2023-05-21T10:46:58.464Z,68.01
2023-05-21T10:47:58.516Z,68.20
2023-05-21T10:48:58.437Z,68.20
2023-05-21T10:49:58.429Z,68.40
2023-05-21T10:50:58.440Z,68.30
2023-05-21T10:51:58.447Z,68.60
2023-05-21T10:52:58.413Z,68.60
2023-05-21T10:53:58.396Z,68.60
2023-05-21T10:54:58.371Z,68.50
2023-05-21T10:55:58.460Z,68.60
2023-05-21T10:56:58.350Z,68.60
2023-05-21T10:57:58.439Z,68.50
2023-05-21T10:58:58.322Z,68.50
2023-05-21T10:59:58.365Z,68.56
2023-05-21T11:00:58.331Z,68.37
2023-05-21T11:01:58.314Z,68.60
2023-05-21T11:02:58.404Z,68.07
2023-05-21T11:03:58.390Z,67.87
2023-05-21T11:04:58.258Z,68.07
2023-05-21T11:05:58.265Z,67.97
2023-05-21T11:06:58.271Z,67.48
2023-05-21T11:07:58.216Z,67.18
2023-05-21T11:08:58.217Z,67.68
2023-05-21T11:09:58.327Z,67.38
2023-05-21T11:10:58.342Z,66.99
2023-05-21T11:11:58.214Z,67.77
2023-05-21T11:12:58.165Z,68.07
2023-05-21T11:13:58.154Z,67.08
2023-05-21T11:14:58.249Z,68.07
2023-05-21T11:15:58.206Z,66.99
2023-05-21T11:16:58.151Z,68.07
2023-05-21T11:17:58.181Z,66.99
2023-05-21T11:18:58.178Z,67.38
2023-05-21T11:19:58.087Z,67.18
2023-05-21T11:20:58.079Z,67.97
2023-05-21T11:21:58.258Z,67.77
2023-05-21T11:22:58.085Z,67.87
2023-05-21T11:23:58.064Z,67.08
2023-05-21T11:24:58.060Z,67.08
2023-05-21T11:25:58.029Z,67.08
2023-05-21T11:26:58.089Z,67.68
2023-05-21T11:27:58.074Z,67.68
2023-05-21T11:28:57.986Z,67.38
2023-05-21T11:29:57.985Z,67.48
2023-05-21T11:30:57.981Z,67.38
2023-05-21T11:31:57.952Z,67.38
2023-05-21T11:32:57.965Z,67.38
2023-05-21T11:33:57.967Z,67.38
2023-05-21T11:34:58.005Z,67.18
2023-05-21T11:35:57.912Z,66.89
2023-05-21T11:36:57.899Z,66.99
2023-05-21T11:37:57.912Z,67.18
2023-05-21T11:38:57.908Z,66.99
2023-05-21T11:39:57.912Z,67.12
2023-05-21T11:40:57.857Z,67.02
2023-05-21T11:41:57.873Z,66.82
2023-05-21T11:42:57.845Z,67.08
2023-05-21T11:43:57.826Z,67.08
2023-05-21T11:44:57.821Z,67.29
2023-05-21T11:45:57.851Z,67.48
2023-05-21T11:46:57.854Z,67.18
2023-05-21T11:47:57.842Z,67.38
2023-05-21T11:48:57.772Z,67.22
2023-05-21T11:49:57.761Z,66.79
2023-05-21T11:50:57.741Z,66.69
2023-05-21T11:51:57.765Z,67.08
2023-05-21T11:52:57.722Z,66.79
2023-05-21T11:53:57.712Z,66.99
2023-05-21T11:54:57.730Z,66.99
2023-05-21T11:55:57.991Z,66.79
2023-05-21T11:56:57.682Z,66.69
2023-05-21T11:57:57.697Z,66.60
2023-05-21T11:58:57.678Z,66.49
2023-05-21T11:59:57.669Z,66.69
2023-05-21T12:00:57.628Z,66.60
2023-05-21T12:01:57.628Z,66.39
2023-05-21T12:02:57.740Z,66.49
2023-05-21T12:03:57.726Z,65.97
2023-05-21T12:04:57.586Z,66.39
2023-05-21T12:05:57.650Z,66.60
2023-05-21T12:06:57.569Z,65.97
2023-05-21T12:07:57.554Z,66.17
2023-05-21T12:08:57.544Z,66.36
2023-05-21T12:09:57.571Z,66.56
2023-05-21T12:10:57.548Z,66.56
2023-05-21T12:11:57.514Z,66.36
2023-05-21T12:12:57.825Z,65.77
2023-05-21T12:13:57.562Z,65.97
2023-05-21T12:14:57.505Z,65.77
2023-05-21T12:15:57.552Z,65.97
2023-05-21T12:16:57.464Z,65.87
2023-05-21T12:17:57.474Z,66.07
2023-05-21T12:18:57.486Z,66.36
2023-05-21T12:19:57.419Z,65.67
2023-05-21T12:20:57.411Z,65.77
2023-05-21T12:21:57.432Z,65.58
2023-05-21T12:22:57.403Z,65.58
2023-05-21T12:23:57.370Z,65.28
2023-05-21T12:24:57.418Z,65.64
2023-05-21T12:25:57.357Z,65.25
2023-05-21T12:26:57.367Z,65.45
2023-05-21T12:27:57.365Z,65.55
2023-05-21T12:28:57.336Z,65.35
2023-05-21T12:29:57.306Z,65.35
2023-05-21T12:30:57.337Z,65.45
2023-05-21T12:31:57.369Z,65.45
2023-05-21T12:32:57.329Z,65.38
2023-05-21T12:33:57.320Z,65.55
2023-05-21T12:34:57.259Z,65.87
2023-05-21T12:35:57.262Z,65.77
2023-05-21T12:36:57.233Z,66.00
2023-05-21T12:37:57.226Z,65.94
2023-05-21T12:38:57.212Z,65.64
2023-05-21T12:39:57.234Z,65.64
2023-05-21T12:40:57.192Z,65.84
2023-05-21T12:41:57.179Z,65.84
2023-05-21T12:42:57.185Z,65.77
2023-05-21T12:43:57.156Z,65.67
2023-05-21T12:44:57.153Z,65.67
2023-05-21T12:45:57.199Z,65.77
2023-05-21T12:46:57.127Z,65.77
2023-05-21T12:47:57.192Z,65.47
2023-05-21T12:48:57.102Z,65.84
2023-05-21T12:49:57.139Z,65.64
2023-05-21T12:50:57.074Z,65.54
2023-05-21T12:51:57.106Z,65.22